sensor_id;sensor_type;location;lat;lon;timestamp;pressure;altitude;pressure_sealevel;temperature;humidity
21276;BME280;36472;52.170;20.884;2022-07-29T00:01:47;100974.81;;;14.63;93.76
21276;BME280;36472;52.170;20.884;2022-07-29T00:04:15;100976.47;;;14.64;93.78
21276;BME280;36472;52.170;20.884;2022-07-29T00:06:45;100980.94;;;14.63;93.27
21276;BME280;36472;52.170;20.884;2022-07-29T00:09:13;100983.47;;;14.65;93.56
21276;BME280;36472;52.170;20.884;2022-07-29T00:11:43;100984.66;;;14.61;93.77
21276;BME280;36472;52.170;20.884;2022-07-29T00:14:12;100977.84;;;14.56;93.93
21276;BME280;36472;52.170;20.884;2022-07-29T00:16:41;100979.56;;;14.57;92.88
21276;BME280;36472;52.170;20.884;2022-07-29T00:19:10;100980.22;;;14.61;94.08
21276;BME280;36472;52.170;20.884;2022-07-29T00:21:39;100983.56;;;14.63;94.10
21276;BME280;36472;52.170;20.884;2022-07-29T00:24:08;100987.06;;;14.64;92.91
21276;BME280;36472;52.170;20.884;2022-07-29T00:26:37;100984.41;;;14.64;93.19
21276;BME280;36472;52.170;20.884;2022-07-29T00:29:07;100981.91;;;14.62;93.45
21276;BME280;36472;52.170;20.884;2022-07-29T00:31:55;100989.84;;;14.62;93.55
21276;BME280;36472;52.170;20.884;2022-07-29T00:34:24;100992.59;;;14.61;93.84
21276;BME280;36472;52.170;20.884;2022-07-29T00:37:10;100982.19;;;14.57;93.69
21276;BME280;36472;52.170;20.884;2022-07-29T00:39:39;100983.03;;;14.58;94.08
21276;BME280;36472;52.170;20.884;2022-07-29T00:42:07;100975.09;;;14.58;93.63
21276;BME280;36472;52.170;20.884;2022-07-29T00:44:39;100971.44;;;14.61;93.37
21276;BME280;36472;52.170;20.884;2022-07-29T00:47:09;100970.47;;;14.62;93.60
21276;BME280;36472;52.170;20.884;2022-07-29T00:49:40;100971.72;;;14.56;92.33
21276;BME280;36472;52.170;20.884;2022-07-29T00:52:11;100972.16;;;14.50;92.83
21276;BME280;36472;52.170;20.884;2022-07-29T00:54:43;100965.94;;;14.51;93.68
21276;BME280;36472;52.170;20.884;2022-07-29T00:57:12;100973.44;;;14.57;93.42
21276;BME280;36472;52.170;20.884;2022-07-29T00:59:42;100966.34;;;14.57;93.31
21276;BME280;36472;52.170;20.884;2022-07-29T01:02:11;100967.16;;;14.58;93.00
21276;BME280;36472;52.170;20.884;2022-07-29T01:04:41;100978.63;;;14.58;93.45
21276;BME280;36472;52.170;20.884;2022-07-29T01:07:10;100974.09;;;14.61;93.75
21276;BME280;36472;52.170;20.884;2022-07-29T01:09:40;100967.81;;;14.62;92.80
21276;BME280;36472;52.170;20.884;2022-07-29T01:12:19;100974.34;;;14.69;93.41
21276;BME280;36472;52.170;20.884;2022-07-29T01:14:53;100974.34;;;14.69;93.25
21276;BME280;36472;52.170;20.884;2022-07-29T01:17:29;100971.19;;;14.64;91.93
21276;BME280;36472;52.170;20.884;2022-07-29T01:20:08;100975.53;;;14.65;92.23
21276;BME280;36472;52.170;20.884;2022-07-29T01:23:01;100975.41;;;14.66;92.07
21276;BME280;36472;52.170;20.884;2022-07-29T01:25:52;100970.97;;;14.67;92.57
21276;BME280;36472;52.170;20.884;2022-07-29T01:28:59;100966.53;;;14.67;91.38
21276;BME280;36472;52.170;20.884;2022-07-29T01:31:44;100967.50;;;14.66;91.92
21276;BME280;36472;52.170;20.884;2022-07-29T01:34:35;100970.97;;;14.67;91.39
21276;BME280;36472;52.170;20.884;2022-07-29T01:37:18;100965.69;;;14.67;91.34
21276;BME280;36472;52.170;20.884;2022-07-29T01:39:49;100966.16;;;14.61;90.68
21276;BME280;36472;52.170;20.884;2022-07-29T01:42:27;100977.56;;;14.61;91.27
21276;BME280;36472;52.170;20.884;2022-07-29T01:45:06;100980.81;;;14.65;91.79
21276;BME280;36472;52.170;20.884;2022-07-29T01:47:42;100981.44;;;14.68;93.04
21276;BME280;36472;52.170;20.884;2022-07-29T01:50:17;100977.63;;;14.72;92.59
21276;BME280;36472;52.170;20.884;2022-07-29T01:52:54;100973.41;;;14.70;92.04
21276;BME280;36472;52.170;20.884;2022-07-29T01:55:31;100976.97;;;14.69;92.01
21276;BME280;36472;52.170;20.884;2022-07-29T01:58:03;100976.38;;;14.65;92.28
21276;BME280;36472;52.170;20.884;2022-07-29T02:00:35;100975.31;;;14.68;92.53
21276;BME280;36472;52.170;20.884;2022-07-29T02:03:09;100972.44;;;14.71;93.08
21276;BME280;36472;52.170;20.884;2022-07-29T02:05:42;100981.22;;;14.71;92.67
21276;BME280;36472;52.170;20.884;2022-07-29T02:08:15;100983.03;;;14.71;93.43
21276;BME280;36472;52.170;20.884;2022-07-29T02:10:47;100983.75;;;14.73;94.29
21276;BME280;36472;52.170;20.884;2022-07-29T02:13:20;100982.78;;;14.74;94.23
21276;BME280;36472;52.170;20.884;2022-07-29T02:15:55;100980.91;;;14.76;94.38
21276;BME280;36472;52.170;20.884;2022-07-29T02:18:28;100981.84;;;14.75;94.59
21276;BME280;36472;52.170;20.884;2022-07-29T02:20:59;100975.81;;;14.73;94.87
21276;BME280;36472;52.170;20.884;2022-07-29T02:23:32;100974.00;;;14.73;95.17
21276;BME280;36472;52.170;20.884;2022-07-29T02:26:19;100969.03;;;14.69;95.56
21276;BME280;36472;52.170;20.884;2022-07-29T02:28:51;100981.84;;;14.75;96.16
21276;BME280;36472;52.170;20.884;2022-07-29T02:31:33;100977.28;;;14.77;96.39
21276;BME280;36472;52.170;20.884;2022-07-29T02:34:06;100976.03;;;14.70;95.88
21276;BME280;36472;52.170;20.884;2022-07-29T02:36:37;100986.50;;;14.71;96.57
21276;BME280;36472;52.170;20.884;2022-07-29T02:39:08;100975.72;;;14.74;96.96
21276;BME280;36472;52.170;20.884;2022-07-29T02:41:44;100980.63;;;14.79;96.44
21276;BME280;36472;52.170;20.884;2022-07-29T02:44:15;100980.03;;;14.75;96.28
21276;BME280;36472;52.170;20.884;2022-07-29T02:46:54;100990.38;;;14.78;96.72
21276;BME280;36472;52.170;20.884;2022-07-29T02:49:35;100992.81;;;14.82;97.18
21276;BME280;36472;52.170;20.884;2022-07-29T02:52:12;100987.53;;;14.82;96.77
21276;BME280;36472;52.170;20.884;2022-07-29T02:54:46;100984.97;;;14.80;96.88
21276;BME280;36472;52.170;20.884;2022-07-29T02:57:22;100992.94;;;14.80;97.12
21276;BME280;36472;52.170;20.884;2022-07-29T02:59:59;100989.56;;;14.78;97.81
21276;BME280;36472;52.170;20.884;2022-07-29T03:02:36;100981.63;;;14.78;97.61
21276;BME280;36472;52.170;20.884;2022-07-29T03:05:11;100984.97;;;14.80;97.64
21276;BME280;36472;52.170;20.884;2022-07-29T03:07:48;100977.88;;;14.81;97.53
21276;BME280;36472;52.170;20.884;2022-07-29T03:10:18;100974.28;;;14.82;97.77
21276;BME280;36472;52.170;20.884;2022-07-29T03:12:47;100975.75;;;14.86;98.25
21276;BME280;36472;52.170;20.884;2022-07-29T03:15:17;100979.00;;;14.89;98.20
21276;BME280;36472;52.170;20.884;2022-07-29T03:17:48;100981.53;;;14.91;98.17
21276;BME280;36472;52.170;20.884;2022-07-29T03:20:18;100973.09;;;14.86;97.99
21276;BME280;36472;52.170;20.884;2022-07-29T03:22:47;100987.22;;;14.98;97.80
21276;BME280;36472;52.170;20.884;2022-07-29T03:25:18;100989.41;;;15.04;97.55
21276;BME280;36472;52.170;20.884;2022-07-29T03:27:48;100984.97;;;15.04;97.15
21276;BME280;36472;52.170;20.884;2022-07-29T03:30:17;100982.94;;;15.08;97.22
21276;BME280;36472;52.170;20.884;2022-07-29T03:32:51;100981.00;;;15.10;97.20
21276;BME280;36472;52.170;20.884;2022-07-29T03:35:20;100978.63;;;15.07;97.76
21276;BME280;36472;52.170;20.884;2022-07-29T03:37:49;100985.25;;;15.12;97.38
21276;BME280;36472;52.170;20.884;2022-07-29T03:40:22;100987.78;;;15.14;97.71
21276;BME280;36472;52.170;20.884;2022-07-29T03:42:55;100980.66;;;15.14;97.67
21276;BME280;36472;52.170;20.884;2022-07-29T03:45:25;100988.94;;;15.10;97.72
21276;BME280;36472;52.170;20.884;2022-07-29T03:48:02;100990.09;;;15.19;97.35
21276;BME280;36472;52.170;20.884;2022-07-29T03:50:34;100980.44;;;15.18;97.36
21276;BME280;36472;52.170;20.884;2022-07-29T03:53:04;100988.28;;;15.19;97.53
21276;BME280;36472;52.170;20.884;2022-07-29T03:55:40;100987.81;;;15.25;97.06
21276;BME280;36472;52.170;20.884;2022-07-29T03:58:11;100992.63;;;15.31;96.64
21276;BME280;36472;52.170;20.884;2022-07-29T04:00:41;100990.59;;;15.35;97.31
21276;BME280;36472;52.170;20.884;2022-07-29T04:03:13;100985.91;;;15.39;97.65
21276;BME280;36472;52.170;20.884;2022-07-29T04:05:42;100996.38;;;15.40;97.37
21276;BME280;36472;52.170;20.884;2022-07-29T04:08:11;100993.84;;;15.39;97.25
21276;BME280;36472;52.170;20.884;2022-07-29T04:10:39;100995.53;;;15.40;97.09
21276;BME280;36472;52.170;20.884;2022-07-29T04:13:08;101001.09;;;15.48;97.43
21276;BME280;36472;52.170;20.884;2022-07-29T04:15:36;100990.50;;;15.48;97.06
21276;BME280;36472;52.170;20.884;2022-07-29T04:18:05;100991.00;;;15.53;98.04
21276;BME280;36472;52.170;20.884;2022-07-29T04:20:35;100986.09;;;15.60;96.86
21276;BME280;36472;52.170;20.884;2022-07-29T04:23:04;100988.97;;;15.68;96.46
21276;BME280;36472;52.170;20.884;2022-07-29T04:25:33;100988.28;;;16.00;93.52
21276;BME280;36472;52.170;20.884;2022-07-29T04:28:05;100978.63;;;15.76;95.17
21276;BME280;36472;52.170;20.884;2022-07-29T04:30:35;100988.44;;;15.87;95.51
21276;BME280;36472;52.170;20.884;2022-07-29T04:33:06;100988.16;;;15.90;95.78
21276;BME280;36472;52.170;20.884;2022-07-29T04:35:37;100994.31;;;16.02;95.40
21276;BME280;36472;52.170;20.884;2022-07-29T04:38:18;100997.22;;;16.21;93.87
21276;BME280;36472;52.170;20.884;2022-07-29T04:40:47;100986.00;;;16.18;93.25
21276;BME280;36472;52.170;20.884;2022-07-29T04:43:17;100989.72;;;16.15;94.11
21276;BME280;36472;52.170;20.884;2022-07-29T04:45:50;101002.50;;;16.21;93.81
21276;BME280;36472;52.170;20.884;2022-07-29T04:48:18;101004.53;;;16.29;93.55
21276;BME280;36472;52.170;20.884;2022-07-29T04:50:56;101001.03;;;16.40;92.29
21276;BME280;36472;52.170;20.884;2022-07-29T04:53:25;101006.81;;;16.45;91.39
21276;BME280;36472;52.170;20.884;2022-07-29T04:55:54;101009.91;;;16.61;91.05
21276;BME280;36472;52.170;20.884;2022-07-29T04:58:23;101001.13;;;16.50;90.60
21276;BME280;36472;52.170;20.884;2022-07-29T05:00:51;101013.91;;;16.56;89.64
21276;BME280;36472;52.170;20.884;2022-07-29T05:03:20;101009.06;;;16.61;88.87
21276;BME280;36472;52.170;20.884;2022-07-29T05:05:49;101013.88;;;16.67;89.32
21276;BME280;36472;52.170;20.884;2022-07-29T05:08:19;101019.66;;;16.72;87.54
21276;BME280;36472;52.170;20.884;2022-07-29T05:10:48;101019.03;;;16.80;87.23
21276;BME280;36472;52.170;20.884;2022-07-29T05:13:16;101025.91;;;16.82;87.08
21276;BME280;36472;52.170;20.884;2022-07-29T05:15:45;101031.56;;;16.89;86.67
21276;BME280;36472;52.170;20.884;2022-07-29T05:18:14;101031.53;;;17.00;86.79
21276;BME280;36472;52.170;20.884;2022-07-29T05:20:43;101032.13;;;17.04;85.61
21276;BME280;36472;52.170;20.884;2022-07-29T05:23:11;101036.22;;;17.08;85.32
21276;BME280;36472;52.170;20.884;2022-07-29T05:25:42;101027.72;;;17.14;84.98
21276;BME280;36472;52.170;20.884;2022-07-29T05:28:11;101032.34;;;17.33;85.33
21276;BME280;36472;52.170;20.884;2022-07-29T05:30:40;101031.25;;;17.36;84.09
21276;BME280;36472;52.170;20.884;2022-07-29T05:33:09;101026.03;;;17.46;84.24
21276;BME280;36472;52.170;20.884;2022-07-29T05:35:58;101024.44;;;17.64;83.60
21276;BME280;36472;52.170;20.884;2022-07-29T05:38:27;101027.34;;;17.82;81.98
21276;BME280;36472;52.170;20.884;2022-07-29T05:40:59;101030.94;;;17.92;82.16
21276;BME280;36472;52.170;20.884;2022-07-29T05:43:28;101027.91;;;18.07;82.81
21276;BME280;36472;52.170;20.884;2022-07-29T05:45:57;101020.25;;;18.13;81.77
21276;BME280;36472;52.170;20.884;2022-07-29T05:48:26;101006.03;;;18.34;79.98
21276;BME280;36472;52.170;20.884;2022-07-29T05:50:55;101009.94;;;18.30;79.92
21276;BME280;36472;52.170;20.884;2022-07-29T05:53:23;101021.25;;;18.22;79.41
21276;BME280;36472;52.170;20.884;2022-07-29T05:55:52;101018.69;;;18.61;77.85
21276;BME280;36472;52.170;20.884;2022-07-29T05:58:23;101017.53;;;18.44;78.62
21276;BME280;36472;52.170;20.884;2022-07-29T06:00:51;101016.44;;;18.47;78.03
21276;BME280;36472;52.170;20.884;2022-07-29T06:03:20;101019.13;;;18.66;77.11
21276;BME280;36472;52.170;20.884;2022-07-29T06:05:49;101008.63;;;18.75;76.97
21276;BME280;36472;52.170;20.884;2022-07-29T06:08:17;101007.97;;;18.92;75.61
21276;BME280;36472;52.170;20.884;2022-07-29T06:10:46;101015.34;;;18.79;75.46
21276;BME280;36472;52.170;20.884;2022-07-29T06:13:15;101017.66;;;18.93;74.96
21276;BME280;36472;52.170;20.884;2022-07-29T06:15:45;101015.25;;;19.00;74.69
21276;BME280;36472;52.170;20.884;2022-07-29T06:18:14;101007.84;;;19.13;73.85
21276;BME280;36472;52.170;20.884;2022-07-29T06:20:43;101014.09;;;19.32;73.28
21276;BME280;36472;52.170;20.884;2022-07-29T06:23:11;101009.91;;;19.39;73.92
21276;BME280;36472;52.170;20.884;2022-07-29T06:25:41;101013.34;;;19.69;72.50
21276;BME280;36472;52.170;20.884;2022-07-29T06:28:10;101011.09;;;19.64;72.08
21276;BME280;36472;52.170;20.884;2022-07-29T06:30:39;101010.09;;;19.85;71.66
21276;BME280;36472;52.170;20.884;2022-07-29T06:33:09;101014.47;;;19.76;71.21
21276;BME280;36472;52.170;20.884;2022-07-29T06:35:44;101015.88;;;19.70;71.20
21276;BME280;36472;52.170;20.884;2022-07-29T06:38:21;101016.13;;;19.87;69.96
21276;BME280;36472;52.170;20.884;2022-07-29T06:40:59;101013.81;;;20.02;70.90
21276;BME280;36472;52.170;20.884;2022-07-29T06:43:31;101018.22;;;20.48;69.36
21276;BME280;36472;52.170;20.884;2022-07-29T06:46:03;101029.22;;;20.45;67.88
21276;BME280;36472;52.170;20.884;2022-07-29T06:48:35;101021.88;;;20.47;69.74
21276;BME280;36472;52.170;20.884;2022-07-29T06:51:05;101019.53;;;20.72;68.44
21276;BME280;36472;52.170;20.884;2022-07-29T06:53:35;101021.94;;;20.83;68.60
21276;BME280;36472;52.170;20.884;2022-07-29T06:56:06;101020.44;;;20.81;67.28
21276;BME280;36472;52.170;20.884;2022-07-29T06:58:36;101025.16;;;21.05;67.41
21276;BME280;36472;52.170;20.884;2022-07-29T07:01:07;101034.47;;;21.19;65.90
21276;BME280;36472;52.170;20.884;2022-07-29T07:03:37;101020.75;;;21.40;65.76
21276;BME280;36472;52.170;20.884;2022-07-29T07:06:06;101017.75;;;21.87;61.65
21276;BME280;36472;52.170;20.884;2022-07-29T07:08:41;101012.47;;;21.95;62.00
21276;BME280;36472;52.170;20.884;2022-07-29T07:11:10;101009.13;;;22.28;60.40
21276;BME280;36472;52.170;20.884;2022-07-29T07:13:38;101018.56;;;22.65;59.20
21276;BME280;36472;52.170;20.884;2022-07-29T07:16:07;101016.25;;;22.27;60.15
21276;BME280;36472;52.170;20.884;2022-07-29T07:18:37;101023.31;;;22.79;60.39
21276;BME280;36472;52.170;20.884;2022-07-29T07:21:06;101016.41;;;22.68;58.37
21276;BME280;36472;52.170;20.884;2022-07-29T07:23:35;101019.63;;;22.88;56.84
21276;BME280;36472;52.170;20.884;2022-07-29T07:26:04;101013.75;;;22.76;59.30
21276;BME280;36472;52.170;20.884;2022-07-29T07:28:33;101019.44;;;22.82;57.55
21276;BME280;36472;52.170;20.884;2022-07-29T07:31:02;101015.09;;;22.81;57.24
21276;BME280;36472;52.170;20.884;2022-07-29T07:33:30;101016.25;;;22.78;56.43
21276;BME280;36472;52.170;20.884;2022-07-29T07:36:00;101029.84;;;23.01;57.18
21276;BME280;36472;52.170;20.884;2022-07-29T07:38:29;101016.75;;;23.72;54.54
21276;BME280;36472;52.170;20.884;2022-07-29T07:40:58;101015.38;;;24.32;52.30
21276;BME280;36472;52.170;20.884;2022-07-29T07:43:27;101024.94;;;24.97;51.33
21276;BME280;36472;52.170;20.884;2022-07-29T07:45:56;101027.44;;;24.76;49.04
21276;BME280;36472;52.170;20.884;2022-07-29T07:48:25;101032.56;;;25.32;48.06
21276;BME280;36472;52.170;20.884;2022-07-29T07:50:54;101024.50;;;24.86;49.71
21276;BME280;36472;52.170;20.884;2022-07-29T07:53:24;101027.41;;;25.60;51.75
21276;BME280;36472;52.170;20.884;2022-07-29T07:55:53;101031.03;;;26.42;45.92
21276;BME280;36472;52.170;20.884;2022-07-29T07:58:39;101027.50;;;27.42;42.51
21276;BME280;36472;52.170;20.884;2022-07-29T08:01:08;101026.94;;;28.17;42.11
21276;BME280;36472;52.170;20.884;2022-07-29T08:03:37;101024.88;;;29.01;39.80
21276;BME280;36472;52.170;20.884;2022-07-29T08:06:06;101034.09;;;29.20;39.67
21276;BME280;36472;52.170;20.884;2022-07-29T08:08:36;101030.94;;;31.05;35.14
21276;BME280;36472;52.170;20.884;2022-07-29T08:11:05;101030.28;;;29.88;39.79
21276;BME280;36472;52.170;20.884;2022-07-29T08:13:37;101024.78;;;30.01;38.35
21276;BME280;36472;52.170;20.884;2022-07-29T08:16:07;101022.41;;;29.26;40.56
21276;BME280;36472;52.170;20.884;2022-07-29T08:18:45;101027.00;;;29.45;40.08
21276;BME280;36472;52.170;20.884;2022-07-29T08:21:14;101025.00;;;28.59;40.88
21276;BME280;36472;52.170;20.884;2022-07-29T08:23:45;101018.84;;;28.85;39.67
21276;BME280;36472;52.170;20.884;2022-07-29T08:26:25;101022.25;;;28.46;39.77
21276;BME280;36472;52.170;20.884;2022-07-29T08:28:54;101023.38;;;28.65;42.63
21276;BME280;36472;52.170;20.884;2022-07-29T08:31:23;101022.69;;;28.49;43.25
21276;BME280;36472;52.170;20.884;2022-07-29T08:33:52;101027.34;;;29.76;37.33
21276;BME280;36472;52.170;20.884;2022-07-29T08:36:20;101031.59;;;29.25;38.70
21276;BME280;36472;52.170;20.884;2022-07-29T08:38:50;101029.47;;;29.14;40.47
21276;BME280;36472;52.170;20.884;2022-07-29T08:41:20;101019.88;;;28.84;40.26
21276;BME280;36472;52.170;20.884;2022-07-29T08:43:50;101023.03;;;30.72;34.94
21276;BME280;36472;52.170;20.884;2022-07-29T08:46:20;101023.78;;;31.36;33.36
21276;BME280;36472;52.170;20.884;2022-07-29T08:48:49;101026.47;;;30.02;37.80
21276;BME280;36472;52.170;20.884;2022-07-29T08:51:20;101013.25;;;30.64;35.85
21276;BME280;36472;52.170;20.884;2022-07-29T08:53:50;101015.19;;;30.57;38.71
21276;BME280;36472;52.170;20.884;2022-07-29T08:56:20;101015.53;;;30.67;36.16
21276;BME280;36472;52.170;20.884;2022-07-29T08:58:49;101014.66;;;31.30;35.23
21276;BME280;36472;52.170;20.884;2022-07-29T09:01:24;101005.63;;;31.11;35.43
21276;BME280;36472;52.170;20.884;2022-07-29T09:04:06;101015.16;;;30.18;34.54
21276;BME280;36472;52.170;20.884;2022-07-29T09:06:43;101005.69;;;30.41;34.88
21276;BME280;36472;52.170;20.884;2022-07-29T09:09:14;101018.88;;;29.45;35.46
21276;BME280;36472;52.170;20.884;2022-07-29T09:11:43;101011.63;;;30.11;33.79
21276;BME280;36472;52.170;20.884;2022-07-29T09:14:13;101005.91;;;28.67;37.19
21276;BME280;36472;52.170;20.884;2022-07-29T09:16:47;101007.31;;;27.67;37.82
21276;BME280;36472;52.170;20.884;2022-07-29T09:19:23;101004.78;;;28.48;35.96
21276;BME280;36472;52.170;20.884;2022-07-29T09:21:53;101008.00;;;29.05;36.43
21276;BME280;36472;52.170;20.884;2022-07-29T09:24:40;101007.16;;;28.71;36.68
21276;BME280;36472;52.170;20.884;2022-07-29T09:27:19;101002.44;;;27.90;38.25
21276;BME280;36472;52.170;20.884;2022-07-29T09:29:57;100993.84;;;28.97;36.97
21276;BME280;36472;52.170;20.884;2022-07-29T09:32:27;100988.03;;;28.11;36.63
21276;BME280;36472;52.170;20.884;2022-07-29T09:35:19;100992.13;;;27.59;37.47
21276;BME280;36472;52.170;20.884;2022-07-29T09:37:49;100987.78;;;27.65;40.36
21276;BME280;36472;52.170;20.884;2022-07-29T09:40:22;100992.22;;;28.96;37.68
21276;BME280;36472;52.170;20.884;2022-07-29T09:42:52;100989.38;;;29.96;37.97
21276;BME280;36472;52.170;20.884;2022-07-29T09:45:29;100990.47;;;29.68;35.43
21276;BME280;36472;52.170;20.884;2022-07-29T09:48:00;100991.22;;;28.35;39.78
21276;BME280;36472;52.170;20.884;2022-07-29T09:50:42;100992.91;;;27.03;39.98
21276;BME280;36472;52.170;20.884;2022-07-29T09:53:33;100987.03;;;26.20;43.25
21276;BME280;36472;52.170;20.884;2022-07-29T09:56:05;100981.13;;;26.09;42.18
21276;BME280;36472;52.170;20.884;2022-07-29T09:58:34;100988.88;;;26.71;39.61
21276;BME280;36472;52.170;20.884;2022-07-29T10:01:03;100982.13;;;27.03;38.69
21276;BME280;36472;52.170;20.884;2022-07-29T10:03:32;100979.91;;;25.82;42.83
21276;BME280;36472;52.170;20.884;2022-07-29T10:06:18;100978.09;;;26.34;41.27
21276;BME280;36472;52.170;20.884;2022-07-29T10:08:47;100974.41;;;26.20;42.42
21276;BME280;36472;52.170;20.884;2022-07-29T10:11:18;100973.88;;;25.80;42.75
21276;BME280;36472;52.170;20.884;2022-07-29T10:13:48;100971.19;;;25.35;44.33
21276;BME280;36472;52.170;20.884;2022-07-29T10:16:17;100961.69;;;26.14;41.74
21276;BME280;36472;52.170;20.884;2022-07-29T10:18:46;100958.00;;;25.85;43.46
21276;BME280;36472;52.170;20.884;2022-07-29T10:21:15;100961.69;;;25.01;44.21
21276;BME280;36472;52.170;20.884;2022-07-29T10:24:05;100965.38;;;25.24;43.91
21276;BME280;36472;52.170;20.884;2022-07-29T10:26:44;100953.75;;;25.76;43.02
21276;BME280;36472;52.170;20.884;2022-07-29T10:29:14;100947.72;;;27.33;41.32
21276;BME280;36472;52.170;20.884;2022-07-29T10:31:51;100956.16;;;27.58;41.92
21276;BME280;36472;52.170;20.884;2022-07-29T10:34:34;100953.94;;;27.34;42.19
21276;BME280;36472;52.170;20.884;2022-07-29T10:37:19;100957.91;;;27.38;41.74
21276;BME280;36472;52.170;20.884;2022-07-29T10:40:00;100959.91;;;26.79;41.27
21276;BME280;36472;52.170;20.884;2022-07-29T10:43:05;100957.97;;;26.95;40.01
21276;BME280;36472;52.170;20.884;2022-07-29T10:45:42;100948.38;;;26.64;41.32
21276;BME280;36472;52.170;20.884;2022-07-29T10:48:12;100953.78;;;26.49;41.70
21276;BME280;36472;52.170;20.884;2022-07-29T10:51:01;100955.38;;;27.30;41.20
21276;BME280;36472;52.170;20.884;2022-07-29T10:53:48;100949.44;;;27.41;38.73
21276;BME280;36472;52.170;20.884;2022-07-29T10:56:24;100948.03;;;26.95;41.58
21276;BME280;36472;52.170;20.884;2022-07-29T10:59:23;100941.63;;;27.24;40.12
21276;BME280;36472;52.170;20.884;2022-07-29T11:02:42;100941.16;;;26.49;40.51
21276;BME280;36472;52.170;20.884;2022-07-29T11:05:14;100936.84;;;25.97;42.95
21276;BME280;36472;52.170;20.884;2022-07-29T11:08:23;100932.97;;;26.21;41.59
21276;BME280;36472;52.170;20.884;2022-07-29T11:11:30;100931.28;;;25.99;41.87
21276;BME280;36472;52.170;20.884;2022-07-29T11:14:01;100916.84;;;26.43;41.60
21276;BME280;36472;52.170;20.884;2022-07-29T11:17:04;100929.31;;;26.07;41.73
21276;BME280;36472;52.170;20.884;2022-07-29T11:19:36;100923.72;;;25.94;42.05
21276;BME280;36472;52.170;20.884;2022-07-29T11:22:32;100933.84;;;26.43;44.70
21276;BME280;36472;52.170;20.884;2022-07-29T11:25:15;100924.59;;;25.94;41.37
21276;BME280;36472;52.170;20.884;2022-07-29T11:28:13;100920.31;;;25.70;41.77
21276;BME280;36472;52.170;20.884;2022-07-29T11:30:53;100922.81;;;25.72;42.89
21276;BME280;36472;52.170;20.884;2022-07-29T11:33:31;100923.38;;;25.97;43.39
21276;BME280;36472;52.170;20.884;2022-07-29T11:36:22;100916.59;;;26.01;43.74
21276;BME280;36472;52.170;20.884;2022-07-29T11:39:24;100910.69;;;26.27;41.59
21276;BME280;36472;52.170;20.884;2022-07-29T11:42:37;100912.41;;;26.13;41.12
21276;BME280;36472;52.170;20.884;2022-07-29T11:45:11;100912.22;;;26.37;40.67
21276;BME280;36472;52.170;20.884;2022-07-29T11:48:01;100914.56;;;26.25;40.57
21276;BME280;36472;52.170;20.884;2022-07-29T11:50:50;100907.97;;;26.27;39.91
21276;BME280;36472;52.170;20.884;2022-07-29T11:53:21;100910.00;;;26.04;40.07
21276;BME280;36472;52.170;20.884;2022-07-29T11:55:55;100902.47;;;26.57;40.03
21276;BME280;36472;52.170;20.884;2022-07-29T11:58:25;100901.06;;;27.11;38.55
21276;BME280;36472;52.170;20.884;2022-07-29T12:00:55;100902.66;;;26.77;39.78
21276;BME280;36472;52.170;20.884;2022-07-29T12:03:32;100903.66;;;26.98;37.74
21276;BME280;36472;52.170;20.884;2022-07-29T12:06:12;100903.78;;;26.25;40.29
21276;BME280;36472;52.170;20.884;2022-07-29T12:08:46;100907.66;;;26.37;40.40
21276;BME280;36472;52.170;20.884;2022-07-29T12:11:18;100903.84;;;26.10;39.78
21276;BME280;36472;52.170;20.884;2022-07-29T12:13:50;100901.38;;;26.08;39.21
21276;BME280;36472;52.170;20.884;2022-07-29T12:16:20;100898.66;;;26.08;39.87
21276;BME280;36472;52.170;20.884;2022-07-29T12:18:57;100891.16;;;26.04;39.65
21276;BME280;36472;52.170;20.884;2022-07-29T12:21:26;100888.09;;;25.92;39.39
21276;BME280;36472;52.170;20.884;2022-07-29T12:23:57;100896.47;;;25.97;40.17
21276;BME280;36472;52.170;20.884;2022-07-29T12:26:36;100902.44;;;26.14;42.11
21276;BME280;36472;52.170;20.884;2022-07-29T12:29:17;100888.66;;;26.02;41.79
21276;BME280;36472;52.170;20.884;2022-07-29T12:32:03;100888.78;;;25.64;41.77
21276;BME280;36472;52.170;20.884;2022-07-29T12:34:46;100888.94;;;25.18;41.67
21276;BME280;36472;52.170;20.884;2022-07-29T12:37:15;100890.97;;;25.16;43.00
21276;BME280;36472;52.170;20.884;2022-07-29T12:39:45;100880.31;;;25.23;42.23
21276;BME280;36472;52.170;20.884;2022-07-29T12:42:15;100881.34;;;25.22;41.06
21276;BME280;36472;52.170;20.884;2022-07-29T12:44:48;100887.44;;;25.15;43.36
21276;BME280;36472;52.170;20.884;2022-07-29T12:47:19;100878.63;;;25.07;42.02
21276;BME280;36472;52.170;20.884;2022-07-29T12:49:49;100889.59;;;25.20;42.17
21276;BME280;36472;52.170;20.884;2022-07-29T12:52:30;100882.91;;;25.16;42.17
21276;BME280;36472;52.170;20.884;2022-07-29T12:55:02;100886.09;;;25.19;40.93
21276;BME280;36472;52.170;20.884;2022-07-29T12:57:44;100887.56;;;25.22;42.85
21276;BME280;36472;52.170;20.884;2022-07-29T13:00:16;100879.06;;;25.33;41.17
21276;BME280;36472;52.170;20.884;2022-07-29T13:02:55;100876.34;;;25.48;41.71
21276;BME280;36472;52.170;20.884;2022-07-29T13:05:39;100868.91;;;26.17;40.66
21276;BME280;36472;52.170;20.884;2022-07-29T13:08:16;100868.00;;;26.09;41.48
21276;BME280;36472;52.170;20.884;2022-07-29T13:10:49;100862.28;;;27.19;39.12
21276;BME280;36472;52.170;20.884;2022-07-29T13:13:18;100855.81;;;25.77;39.31
21276;BME280;36472;52.170;20.884;2022-07-29T13:16:06;100863.56;;;26.23;41.60